createdAt,value
2023-05-12T00:00:58.560Z,0.00
2023-05-12T00:01:58.530Z,0.00
2023-05-12T00:02:58.533Z,0.00
2023-05-12T00:03:58.580Z,0.00
2023-05-12T00:04:58.542Z,0.00
2023-05-12T00:05:58.408Z,0.00
2023-05-12T00:06:58.359Z,0.00
2023-05-12T00:07:58.324Z,0.00
2023-05-12T00:08:58.289Z,0.00
2023-05-12T00:09:58.273Z,0.00
2023-05-12T00:10:58.237Z,0.00
2023-05-12T00:11:58.180Z,0.00
2023-05-12T00:12:58.154Z,0.00
2023-05-12T00:13:58.137Z,0.00
2023-05-12T00:14:58.082Z,0.00
2023-05-12T00:15:58.087Z,0.00
2023-05-12T00:16:58.113Z,0.00
2023-05-12T00:17:58.006Z,0.00
2023-05-12T00:18:57.973Z,0.00
2023-05-12T00:19:57.919Z,0.00
2023-05-12T00:20:57.878Z,0.00
2023-05-12T00:21:57.852Z,0.00
2023-05-12T00:22:57.817Z,0.00
2023-05-12T00:23:57.778Z,0.00
2023-05-12T00:24:57.745Z,0.00
2023-05-12T00:25:57.704Z,0.00
2023-05-12T00:26:57.680Z,0.00
2023-05-12T00:27:57.640Z,0.00
2023-05-12T00:28:57.630Z,0.00
2023-05-12T00:29:57.586Z,0.00
2023-05-12T00:30:57.538Z,0.00
2023-05-12T00:31:57.585Z,0.00
2023-05-12T00:32:57.503Z,0.00
2023-05-12T00:33:57.437Z,0.00
2023-05-12T00:34:57.407Z,0.00
2023-05-12T00:35:57.368Z,0.00
2023-05-12T00:36:57.352Z,0.00
2023-05-12T00:37:57.303Z,0.00
2023-05-12T00:38:57.270Z,0.00
2023-05-12T00:39:57.245Z,0.00
2023-05-12T00:40:57.205Z,0.00
2023-05-12T00:41:57.169Z,0.00
2023-05-12T00:42:57.130Z,0.00
2023-05-12T00:43:57.110Z,0.00
2023-05-12T00:44:57.067Z,0.00
2023-05-12T00:45:57.108Z,0.00
2023-05-12T00:46:57.015Z,0.00
2023-05-12T00:47:57.015Z,0.00
2023-05-12T00:48:56.930Z,0.00
2023-05-12T00:49:56.913Z,0.00
2023-05-12T00:50:56.865Z,0.00
2023-05-12T00:51:56.833Z,0.00
2023-05-12T00:52:56.802Z,0.00
2023-05-12T00:53:56.766Z,0.00
2023-05-12T00:54:56.744Z,0.00
2023-05-12T00:55:56.704Z,0.00
2023-05-12T00:56:56.666Z,0.00
2023-05-12T00:57:56.633Z,0.00
2023-05-12T00:58:56.597Z,0.00
2023-05-12T00:59:56.559Z,0.00
2023-05-12T01:00:56.571Z,0.00
2023-05-12T01:01:56.489Z,0.00
2023-05-12T01:02:56.521Z,0.00
2023-05-12T01:03:56.419Z,0.00
2023-05-12T01:04:56.387Z,0.00
2023-05-12T01:05:56.357Z,0.00
2023-05-12T01:06:56.319Z,0.00
2023-05-12T01:07:56.285Z,0.00
2023-05-12T01:08:56.250Z,0.00
2023-05-12T01:09:56.219Z,0.00
2023-05-12T01:10:56.189Z,0.00
2023-05-12T01:11:56.152Z,0.00
2023-05-12T01:12:56.112Z,0.00
2023-05-12T01:13:56.089Z,0.00
2023-05-12T01:14:56.087Z,0.00
2023-05-12T01:15:56.029Z,0.00
2023-05-12T01:16:56.055Z,0.00
2023-05-12T01:17:55.939Z,0.00
2023-05-12T01:18:55.951Z,0.00
2023-05-12T01:19:55.878Z,0.00
2023-05-12T01:20:55.847Z,0.00
2023-05-12T01:21:55.803Z,0.00
2023-05-12T01:22:55.782Z,0.00
2023-05-12T01:23:55.739Z,0.00
2023-05-12T01:24:55.720Z,0.00
2023-05-12T01:25:55.682Z,0.00
2023-05-12T01:26:55.651Z,0.00
2023-05-12T01:27:55.613Z,0.00
2023-05-12T01:28:55.569Z,0.00
2023-05-12T01:29:55.544Z,0.00
2023-05-12T01:30:55.635Z,0.00
2023-05-12T01:31:55.469Z,0.00
2023-05-12T01:32:55.527Z,0.00
2023-05-12T01:33:55.412Z,0.00
2023-05-12T01:34:55.362Z,0.00
2023-05-12T01:35:55.342Z,0.00
2023-05-12T01:36:55.298Z,0.00
2023-05-12T01:37:55.261Z,0.00
2023-05-12T01:38:55.233Z,0.00
2023-05-12T01:39:55.193Z,0.00
2023-05-12T01:40:55.165Z,0.00
2023-05-12T01:41:55.135Z,0.00
2023-05-12T01:42:55.095Z,0.00
2023-05-12T01:43:55.063Z,0.00
2023-05-12T01:44:55.027Z,0.00
2023-05-12T01:45:54.996Z,0.00
2023-05-12T01:46:55.002Z,0.00
2023-05-12T01:47:54.957Z,0.00
2023-05-12T01:48:54.887Z,0.00
2023-05-12T01:49:54.880Z,0.00
2023-05-12T01:50:54.823Z,0.00
2023-05-12T01:51:54.782Z,0.00
2023-05-12T01:52:54.747Z,0.00
2023-05-12T01:53:54.718Z,0.00
2023-05-12T01:54:54.681Z,0.00
2023-05-12T01:55:54.644Z,0.00
2023-05-12T01:56:54.613Z,0.00
2023-05-12T01:57:54.606Z,0.00
2023-05-12T01:58:54.549Z,0.00
2023-05-12T01:59:54.517Z,0.00
2023-05-12T02:00:54.467Z,0.00
2023-05-12T02:01:54.483Z,0.00
2023-05-12T02:02:54.530Z,0.00
2023-05-12T02:03:54.508Z,0.00
2023-05-12T02:04:54.340Z,0.00
2023-05-12T02:05:54.305Z,0.00
2023-05-12T02:06:54.282Z,0.00
2023-05-12T02:07:54.233Z,0.00
2023-05-12T02:08:54.200Z,0.00
2023-05-12T02:09:54.164Z,0.00
2023-05-12T02:10:54.130Z,0.00
2023-05-12T02:11:54.103Z,0.00
2023-05-12T02:12:54.067Z,0.00
2023-05-12T02:13:54.028Z,0.00
2023-05-12T02:14:54.004Z,0.00
2023-05-12T02:15:53.991Z,0.00
2023-05-12T02:16:53.925Z,0.00
2023-05-12T02:17:53.995Z,0.00
2023-05-12T02:18:53.909Z,0.00
2023-05-12T02:19:53.832Z,0.00
2023-05-12T02:20:53.792Z,0.00
2023-05-12T02:21:53.757Z,0.00
2023-05-12T02:22:53.733Z,0.00
2023-05-12T02:23:53.694Z,0.00
2023-05-12T02:24:53.655Z,0.00
2023-05-12T02:25:53.618Z,0.00
2023-05-12T02:26:53.596Z,0.00
2023-05-12T02:27:53.551Z,0.00
2023-05-12T02:28:53.540Z,0.00
2023-05-12T02:29:53.495Z,0.00
2023-05-12T02:30:53.461Z,0.00
2023-05-12T02:31:53.436Z,0.00
2023-05-12T02:32:53.412Z,0.00
2023-05-12T02:33:53.349Z,0.00
2023-05-12T02:34:53.324Z,0.00
2023-05-12T02:35:53.282Z,0.00
2023-05-12T02:36:53.245Z,0.00
2023-05-12T02:37:53.211Z,0.00
2023-05-12T02:38:53.176Z,0.00
2023-05-12T02:39:53.146Z,0.00
2023-05-12T02:40:53.107Z,0.00
2023-05-12T02:41:53.079Z,0.00
2023-05-12T02:42:53.040Z,0.00
2023-05-12T02:43:53.005Z,0.00
2023-05-12T02:44:52.978Z,0.00
2023-05-12T02:45:52.973Z,0.00
2023-05-12T02:46:52.905Z,0.00
2023-05-12T02:47:52.917Z,0.00
2023-05-12T02:48:52.855Z,0.00
2023-05-12T02:49:52.804Z,0.00
2023-05-12T02:50:52.771Z,0.00
2023-05-12T02:51:52.736Z,0.00
2023-05-12T02:52:52.706Z,0.00
2023-05-12T02:53:52.673Z,0.00
2023-05-12T02:54:52.636Z,0.00
2023-05-12T02:55:52.601Z,0.00
2023-05-12T02:56:52.566Z,0.00
2023-05-12T02:57:52.563Z,0.00
2023-05-12T02:58:52.507Z,0.00
2023-05-12T02:59:52.469Z,0.00
2023-05-12T03:01:03.051Z,0.00
2023-05-12T03:01:52.466Z,0.00
2023-05-12T03:02:52.429Z,0.00
2023-05-12T03:03:52.428Z,0.00
2023-05-12T03:04:52.298Z,0.00
2023-05-12T03:05:52.280Z,0.00
2023-05-12T03:06:52.236Z,0.00
2023-05-12T03:07:52.204Z,0.00
2023-05-12T03:08:52.160Z,0.00
2023-05-12T03:09:52.138Z,0.00
2023-05-12T03:10:52.099Z,0.00
2023-05-12T03:11:52.069Z,0.00
2023-05-12T03:12:52.030Z,0.00
2023-05-12T03:13:51.998Z,0.00
2023-05-12T03:14:51.961Z,0.00
2023-05-12T03:15:51.936Z,0.00
2023-05-12T03:16:51.937Z,0.00
2023-05-12T03:17:51.902Z,0.00
2023-05-12T03:18:51.936Z,0.00
2023-05-12T03:19:51.795Z,0.00
2023-05-12T03:20:51.769Z,0.00
2023-05-12T03:21:51.735Z,0.00
2023-05-12T03:22:51.718Z,0.00
2023-05-12T03:23:51.661Z,0.00
2023-05-12T03:24:51.636Z,0.00
2023-05-12T03:25:51.590Z,0.00
2023-05-12T03:26:51.560Z,0.00
2023-05-12T03:27:51.527Z,0.00
2023-05-12T03:28:51.502Z,0.00
2023-05-12T03:29:51.455Z,0.00
2023-05-12T03:30:51.423Z,0.00
2023-05-12T03:31:51.547Z,0.00
2023-05-12T03:32:51.393Z,0.00
2023-05-12T03:33:51.338Z,0.00
2023-05-12T03:34:51.294Z,0.00
2023-05-12T03:35:51.258Z,0.00
2023-05-12T03:36:51.254Z,0.00
2023-05-12T03:37:51.191Z,0.00
2023-05-12T03:38:51.155Z,4.00
2023-05-12T03:39:51.120Z,4.00
2023-05-12T03:40:51.085Z,4.00
2023-05-12T03:41:51.053Z,4.00
2023-05-12T03:42:51.017Z,4.00
2023-05-12T03:43:50.988Z,4.00
2023-05-12T03:44:50.947Z,4.00
2023-05-12T03:45:50.921Z,4.00
2023-05-12T03:46:50.927Z,0.00
2023-05-12T03:47:50.950Z,4.00
2023-05-12T03:48:50.815Z,4.00
2023-05-12T03:49:50.807Z,4.00
2023-05-12T03:50:50.754Z,4.00
2023-05-12T03:51:50.718Z,8.00
2023-05-12T03:52:50.683Z,8.00
2023-05-12T03:53:50.645Z,8.00
2023-05-12T03:54:50.637Z,8.00
2023-05-12T03:55:50.595Z,8.00
2023-05-12T03:56:50.545Z,8.00
2023-05-12T03:57:50.517Z,4.00
2023-05-12T03:58:50.481Z,8.00
2023-05-12T03:59:50.447Z,8.00
2023-05-12T04:00:50.421Z,4.00
2023-05-12T04:01:50.409Z,4.00
2023-05-12T04:02:50.501Z,4.00
2023-05-12T04:03:50.518Z,4.00
2023-05-12T04:04:50.274Z,4.00
2023-05-12T04:05:50.254Z,4.00
2023-05-12T04:06:50.211Z,8.00
2023-05-12T04:07:50.184Z,12.00
2023-05-12T04:08:50.156Z,12.00
2023-05-12T04:09:50.121Z,12.00
2023-05-12T04:10:50.075Z,16.00
2023-05-12T04:11:50.044Z,16.00
2023-05-12T04:12:50.015Z,12.00
2023-05-12T04:13:49.983Z,16.00
2023-05-12T04:14:49.943Z,20.00
2023-05-12T04:15:49.903Z,24.00
2023-05-12T04:16:50.020Z,28.00
2023-05-12T04:17:49.907Z,32.00
2023-05-12T04:18:49.943Z,32.00
2023-05-12T04:19:49.772Z,40.00
2023-05-12T04:20:49.742Z,44.00
2023-05-12T04:21:49.714Z,40.00
2023-05-12T04:22:49.666Z,40.00
2023-05-12T04:23:49.638Z,44.00
2023-05-12T04:24:49.603Z,52.00
2023-05-12T04:25:49.595Z,48.00
2023-05-12T04:26:49.538Z,48.00
2023-05-12T04:27:49.506Z,52.00
2023-05-12T04:28:49.472Z,52.00
2023-05-12T04:29:49.434Z,60.00
2023-05-12T04:30:49.396Z,68.00
2023-05-12T04:31:49.404Z,76.00
2023-05-12T04:32:49.382Z,80.00
2023-05-12T04:33:49.298Z,84.00
2023-05-12T04:34:49.264Z,84.00
2023-05-12T04:35:49.234Z,88.00
2023-05-12T04:36:49.200Z,88.00
2023-05-12T04:37:49.200Z,92.00
2023-05-12T04:38:49.128Z,96.00
2023-05-12T04:39:49.113Z,104.00
2023-05-12T04:40:49.074Z,120.00
2023-05-12T04:41:49.048Z,128.00
2023-05-12T04:42:48.996Z,136.00
2023-05-12T04:44:48.942Z,184.00
2023-05-12T04:45:48.929Z,196.00
2023-05-12T04:46:48.860Z,192.00
2023-05-12T04:47:48.867Z,192.00
2023-05-12T04:48:48.797Z,196.00
2023-05-12T04:49:48.763Z,216.00
2023-05-12T04:50:48.737Z,232.00
2023-05-12T04:51:48.696Z,264.00
2023-05-12T04:52:48.661Z,308.00
2023-05-12T04:53:48.627Z,348.00
2023-05-12T04:54:48.598Z,356.00
2023-05-12T04:55:48.559Z,340.00
2023-05-12T04:56:48.521Z,304.00
2023-05-12T04:57:48.490Z,284.00
2023-05-12T04:58:48.459Z,268.00
2023-05-12T04:59:48.421Z,240.00
2023-05-12T05:00:48.388Z,220.00
2023-05-12T05:01:48.400Z,192.00
2023-05-12T05:02:48.406Z,172.00
2023-05-12T05:03:48.364Z,164.00
2023-05-12T05:04:48.264Z,156.00
2023-05-12T05:05:48.223Z,148.00
2023-05-12T05:06:48.198Z,148.00
2023-05-12T05:07:48.157Z,164.00
2023-05-12T05:08:48.122Z,180.00
2023-05-12T05:09:48.090Z,188.00
2023-05-12T05:10:48.068Z,192.00
2023-05-12T05:11:48.024Z,204.00
2023-05-12T05:12:47.985Z,204.00
2023-05-12T05:13:47.960Z,216.00
2023-05-12T05:14:47.927Z,224.00
2023-05-12T05:15:47.934Z,232.00
2023-05-12T05:16:47.857Z,236.00
2023-05-12T05:17:47.855Z,236.00
2023-05-12T05:18:47.830Z,224.00
2023-05-12T05:19:57.139Z,224.00
2023-05-12T05:20:56.783Z,252.00
2023-05-12T05:21:47.682Z,284.00
2023-05-12T05:22:47.652Z,296.00
2023-05-12T05:23:47.624Z,300.00
2023-05-12T05:24:47.590Z,324.00
2023-05-12T05:25:47.554Z,344.00
2023-05-12T05:26:47.516Z,368.00
2023-05-12T05:27:47.506Z,404.00
2023-05-12T05:28:47.451Z,420.00
2023-05-12T05:29:47.419Z,440.00
2023-05-12T05:30:47.388Z,472.00
2023-05-12T05:31:47.467Z,508.00
2023-05-12T05:32:47.372Z,528.00
2023-05-12T05:33:47.294Z,524.00
2023-05-12T05:34:47.254Z,540.00
2023-05-12T05:35:47.216Z,556.00
2023-05-12T05:36:47.189Z,556.00
2023-05-12T05:37:47.154Z,540.00
2023-05-12T05:38:47.111Z,500.00
2023-05-12T05:39:47.082Z,428.00
2023-05-12T05:40:53.798Z,420.00
2023-05-12T05:41:47.054Z,452.00
2023-05-12T05:42:46.982Z,496.00
2023-05-12T05:43:46.947Z,536.00
2023-05-12T05:44:46.940Z,548.00
2023-05-12T05:45:46.886Z,532.00
2023-05-12T05:46:46.882Z,492.00
2023-05-12T05:47:46.841Z,492.00
2023-05-12T05:48:46.781Z,476.00
2023-05-12T05:49:46.755Z,476.00
2023-05-12T05:50:46.743Z,508.00
2023-05-12T05:51:46.680Z,544.00
2023-05-12T05:52:46.648Z,560.00
2023-05-12T05:53:46.616Z,584.00
2023-05-12T05:54:46.587Z,604.00
2023-05-12T05:55:46.556Z,596.00
2023-05-12T05:56:46.518Z,524.00
2023-05-12T05:57:46.488Z,488.00
2023-05-12T05:58:46.451Z,484.00
2023-05-12T05:59:46.419Z,484.00
2023-05-12T06:00:46.383Z,504.00
2023-05-12T06:01:46.425Z,528.00
2023-05-12T06:02:46.825Z,528.00
2023-05-12T06:03:46.356Z,512.00
2023-05-12T06:04:46.250Z,520.00
2023-05-12T06:05:46.218Z,556.00
2023-05-12T06:06:46.177Z,592.00
2023-05-12T06:07:46.163Z,604.00
2023-05-12T06:08:46.181Z,560.00
2023-05-12T06:09:46.083Z,608.00
2023-05-12T06:10:46.044Z,644.00
2023-05-12T06:11:46.017Z,644.00
2023-05-12T06:12:45.979Z,676.00
2023-05-12T06:13:45.946Z,672.00
2023-05-12T06:14:45.912Z,652.00
2023-05-12T06:15:45.886Z,624.00
2023-05-12T06:16:45.900Z,648.00
2023-05-12T06:17:45.829Z,612.00
2023-05-12T06:18:45.812Z,564.00
2023-05-12T06:19:45.751Z,520.00
2023-05-12T06:20:45.753Z,544.00
2023-05-12T06:21:45.686Z,560.00
2023-05-12T06:22:45.649Z,528.00
2023-05-12T06:23:45.613Z,532.00
2023-05-12T06:24:45.579Z,564.00
2023-05-12T06:25:45.546Z,592.00
2023-05-12T06:26:45.505Z,604.00
2023-05-12T06:27:45.477Z,600.00
2023-05-12T06:28:45.444Z,604.00
2023-05-12T06:29:45.421Z,656.00
2023-05-12T06:30:45.377Z,680.00
2023-05-12T06:31:45.379Z,696.00
2023-05-12T06:32:45.367Z,788.00
2023-05-12T06:33:45.285Z,856.00
2023-05-12T06:34:45.243Z,940.00
2023-05-12T06:35:45.211Z,1016.00
2023-05-12T06:36:45.189Z,1088.00
2023-05-12T06:37:45.145Z,1144.00
2023-05-12T06:38:45.115Z,1168.00
2023-05-12T06:39:45.095Z,1152.00
2023-05-12T06:40:45.057Z,1132.00
2023-05-12T06:41:45.011Z,1164.00
2023-05-12T06:42:44.986Z,1168.00
2023-05-12T06:43:44.949Z,1160.00
2023-05-12T06:44:44.926Z,1168.00
2023-05-12T06:45:44.917Z,1176.00
2023-05-12T06:46:44.906Z,1176.00
2023-05-12T06:47:44.820Z,1116.00
2023-05-12T06:48:44.780Z,1044.00
2023-05-12T06:49:44.752Z,1004.00
2023-05-12T06:50:44.713Z,944.00
2023-05-12T06:51:44.680Z,928.00
2023-05-12T06:52:44.662Z,956.00
2023-05-12T06:53:44.619Z,984.00
2023-05-12T06:54:44.587Z,1000.00
2023-05-12T06:55:44.548Z,1040.00
2023-05-12T06:56:44.526Z,1064.00
2023-05-12T06:57:44.482Z,1108.00
2023-05-12T06:58:44.454Z,1180.00
2023-05-12T06:59:44.437Z,1204.00
2023-05-12T07:00:44.385Z,1168.00
2023-05-12T07:01:44.477Z,1164.00
2023-05-12T07:02:44.350Z,1188.00
2023-05-12T07:03:44.293Z,1192.00
2023-05-12T07:04:44.247Z,1168.00
2023-05-12T07:05:44.258Z,1172.00
2023-05-12T07:06:44.179Z,1180.00
2023-05-12T07:07:44.147Z,1184.00
2023-05-12T07:08:44.126Z,1204.00
2023-05-12T07:09:44.082Z,1248.00
2023-05-12T07:10:44.063Z,1252.00
2023-05-12T07:11:44.011Z,1228.00
2023-05-12T07:12:43.985Z,1228.00
2023-05-12T07:13:43.954Z,1260.00
2023-05-12T07:14:43.910Z,1368.00
2023-05-12T07:15:43.917Z,1512.00
2023-05-12T07:16:43.849Z,1636.00
2023-05-12T07:17:43.953Z,1676.00
2023-05-12T07:18:43.792Z,1672.00
2023-05-12T07:19:43.751Z,1644.00
2023-05-12T07:20:43.720Z,1584.00
2023-05-12T07:21:43.675Z,1524.00
2023-05-12T07:22:43.652Z,1460.00
2023-05-12T07:23:43.614Z,1396.00
2023-05-12T07:24:43.589Z,1324.00
2023-05-12T07:25:43.585Z,1248.00
2023-05-12T07:26:43.514Z,1188.00
2023-05-12T07:27:43.480Z,1148.00
2023-05-12T07:28:43.446Z,1120.00
2023-05-12T07:29:43.419Z,1104.00
2023-05-12T07:30:43.380Z,1132.00
2023-05-12T07:31:43.378Z,1204.00
2023-05-12T07:32:43.396Z,1296.00
2023-05-12T07:33:43.289Z,1344.00
2023-05-12T07:34:43.252Z,1352.00
2023-05-12T07:35:43.234Z,1364.00
2023-05-12T07:36:43.190Z,1412.00
2023-05-12T07:37:43.145Z,1476.00
2023-05-12T07:38:43.124Z,1556.00
2023-05-12T07:39:43.084Z,1616.00
2023-05-12T07:40:43.051Z,1668.00
2023-05-12T07:41:43.016Z,1720.00
2023-05-12T07:42:42.988Z,1768.00
2023-05-12T07:43:42.971Z,1816.00
2023-05-12T07:44:42.920Z,1856.00
2023-05-12T07:45:42.887Z,1888.00
2023-05-12T07:46:42.924Z,1924.00
2023-05-12T07:47:42.861Z,1944.00
2023-05-12T07:48:42.789Z,1964.00
2023-05-12T07:49:42.869Z,1976.00
2023-05-12T07:50:42.724Z,1980.00
2023-05-12T07:51:42.687Z,1992.00
2023-05-12T07:52:42.657Z,2000.00
2023-05-12T07:53:42.617Z,1976.00
2023-05-12T07:54:42.595Z,1980.00
2023-05-12T07:55:42.562Z,2020.00
2023-05-12T07:56:42.532Z,2004.00
2023-05-12T07:57:42.489Z,2072.00
2023-05-12T07:58:42.472Z,2108.00
2023-05-12T07:59:42.426Z,2156.00
2023-05-12T08:00:42.391Z,2200.00
2023-05-12T08:01:42.442Z,2212.00
2023-05-12T08:02:42.503Z,2164.00
2023-05-12T08:03:42.410Z,2120.00
2023-05-12T08:04:44.445Z,2172.00
2023-05-12T08:05:42.234Z,2276.00
2023-05-12T08:06:42.192Z,2284.00
2023-05-12T08:07:42.181Z,2316.00
2023-05-12T08:08:42.129Z,2240.00
2023-05-12T08:09:42.092Z,2164.00
2023-05-12T08:10:42.108Z,2076.00
2023-05-12T08:11:43.910Z,1964.00
2023-05-12T08:12:42.019Z,1864.00
2023-05-12T08:13:41.970Z,1832.00
2023-05-12T08:14:41.936Z,1840.00
2023-05-12T08:15:41.907Z,1716.00
2023-05-12T08:16:41.885Z,1728.00
2023-05-12T08:17:41.992Z,1816.00
2023-05-12T08:18:41.824Z,1904.00
2023-05-12T08:19:41.982Z,1968.00
2023-05-12T08:20:41.732Z,2052.00
2023-05-12T08:21:41.856Z,2172.00
2023-05-12T08:22:41.696Z,2212.00
2023-05-12T08:23:41.646Z,2280.00
2023-05-12T08:24:41.613Z,2296.00
2023-05-12T08:25:41.576Z,2328.00
2023-05-12T08:26:41.548Z,2344.00
2023-05-12T08:27:41.519Z,2328.00
2023-05-12T08:28:41.477Z,2356.00
2023-05-12T08:29:41.447Z,2376.00
2023-05-12T08:30:41.443Z,2336.00
2023-05-12T08:31:41.412Z,2304.00
2023-05-12T08:32:41.368Z,2236.00
2023-05-12T08:33:41.310Z,2252.00
2023-05-12T08:34:41.289Z,2236.00
2023-05-12T08:35:41.278Z,2324.00
2023-05-12T08:36:41.215Z,2340.00
2023-05-12T08:37:41.339Z,2412.00
2023-05-12T08:38:41.150Z,2408.00
2023-05-12T08:39:41.129Z,2372.00
2023-05-12T08:40:41.085Z,2436.00
2023-05-12T08:41:41.072Z,2464.00
2023-05-12T08:42:41.021Z,2504.00
2023-05-12T08:43:40.997Z,2428.00
2023-05-12T08:44:40.957Z,2396.00
2023-05-12T08:45:40.950Z,2444.00
2023-05-12T08:46:41.013Z,2436.00
2023-05-12T08:47:40.918Z,2384.00
2023-05-12T08:48:40.828Z,2340.00
2023-05-12T08:49:40.796Z,2360.00
2023-05-12T08:50:40.767Z,2336.00
2023-05-12T08:51:40.746Z,2304.00
2023-05-12T08:52:40.699Z,2216.00
2023-05-12T08:53:40.737Z,2212.00
2023-05-12T08:54:52.241Z,2224.00
2023-05-12T08:55:40.601Z,2204.00
2023-05-12T08:57:40.535Z,2072.00
2023-05-12T08:58:41.993Z,1948.00
2023-05-12T08:59:40.476Z,1800.00
2023-05-12T09:00:40.563Z,1848.00
2023-05-12T09:01:40.488Z,2084.00
2023-05-12T09:02:52.102Z,2248.00
2023-05-12T09:03:40.375Z,2436.00
2023-05-12T09:04:40.352Z,2612.00
2023-05-12T09:05:40.299Z,2676.00
2023-05-12T09:06:40.287Z,2692.00
2023-05-12T09:07:40.222Z,2696.00
2023-05-12T09:08:40.192Z,2692.00
2023-05-12T09:09:40.168Z,2744.00
2023-05-12T09:10:40.134Z,2700.00
2023-05-12T09:11:40.097Z,2632.00
2023-05-12T09:12:40.058Z,2620.00
2023-05-12T09:13:40.033Z,2632.00
2023-05-12T09:14:40.006Z,2656.00
2023-05-12T09:15:39.981Z,2572.00
2023-05-12T09:16:39.949Z,2640.00
2023-05-12T09:17:39.944Z,2660.00
2023-05-12T09:18:39.918Z,2712.00
2023-05-12T09:19:39.842Z,2668.00
2023-05-12T09:20:39.831Z,2548.00
2023-05-12T09:21:39.780Z,2460.00
2023-05-12T09:22:39.748Z,2380.00
2023-05-12T09:23:39.726Z,2388.00
2023-05-12T09:24:39.709Z,2332.00
2023-05-12T09:25:39.688Z,2284.00
2023-05-12T09:26:39.640Z,2304.00
2023-05-12T09:27:39.590Z,2304.00
2023-05-12T09:28:39.568Z,2296.00
2023-05-12T09:29:45.350Z,2328.00
2023-05-12T09:30:39.500Z,2412.00
2023-05-12T09:31:39.570Z,2464.00
2023-05-12T09:32:39.475Z,2524.00
2023-05-12T09:33:39.407Z,2628.00
2023-05-12T09:34:39.391Z,2912.00
2023-05-12T09:35:39.346Z,2752.00
2023-05-12T09:36:40.076Z,2800.00
2023-05-12T09:37:39.280Z,2636.00
2023-05-12T09:38:39.248Z,2432.00
2023-05-12T09:39:39.231Z,2288.00
2023-05-12T09:40:39.195Z,2132.00
2023-05-12T09:41:39.172Z,2160.00
2023-05-12T09:42:39.133Z,2228.00
2023-05-12T09:43:39.094Z,2324.00
2023-05-12T09:44:39.063Z,2516.00
2023-05-12T09:45:39.271Z,2616.00
2023-05-12T09:46:38.999Z,2340.00
2023-05-12T09:47:39.011Z,2112.00
2023-05-12T09:48:38.952Z,1888.00
2023-05-12T09:49:38.925Z,1780.00
2023-05-12T09:50:47.177Z,1808.00
2023-05-12T09:51:38.846Z,1860.00
2023-05-12T09:52:38.830Z,1968.00
2023-05-12T09:53:38.786Z,2028.00
2023-05-12T09:54:38.768Z,2080.00
2023-05-12T09:55:38.735Z,2156.00
2023-05-12T09:56:38.693Z,2244.00
2023-05-12T09:57:38.697Z,2464.00
2023-05-12T09:58:38.643Z,2524.00
2023-05-12T09:59:39.339Z,2568.00
2023-05-12T10:00:58.548Z,2656.00
2023-05-12T10:01:38.569Z,2812.00
2023-05-12T10:02:38.543Z,2888.00
2023-05-12T10:03:38.475Z,2836.00
2023-05-12T10:04:38.500Z,2596.00
2023-05-12T10:05:38.408Z,2464.00
2023-05-12T10:06:38.386Z,2660.00
2023-05-12T10:07:38.357Z,2812.00
2023-05-12T10:08:38.328Z,2976.00
2023-05-12T10:09:38.289Z,3156.00
2023-05-12T10:10:38.257Z,3212.00
2023-05-12T10:11:38.228Z,3132.00
2023-05-12T10:12:38.194Z,3264.00
2023-05-12T10:13:38.169Z,3168.00
2023-05-12T10:14:38.156Z,3304.00
2023-05-12T10:15:38.112Z,3100.00
2023-05-12T10:16:38.103Z,2936.00
2023-05-12T10:17:38.064Z,2920.00
2023-05-12T10:18:38.045Z,2696.00
2023-05-12T10:19:37.983Z,2436.00
2023-05-12T10:20:37.951Z,2280.00
2023-05-12T10:21:37.917Z,2664.00
2023-05-12T10:22:37.898Z,2988.00
2023-05-12T10:23:38.260Z,2944.00
2023-05-12T10:24:37.840Z,3212.00
2023-05-12T10:25:37.802Z,2864.00
2023-05-12T10:26:38.832Z,3008.00
2023-05-12T10:27:37.778Z,3112.00
2023-05-12T10:28:37.708Z,3060.00
2023-05-12T10:29:37.766Z,3008.00
2023-05-12T10:30:37.649Z,3028.00
2023-05-12T10:31:37.640Z,3204.00
2023-05-12T10:32:37.613Z,3236.00
2023-05-12T10:33:37.556Z,3244.00
2023-05-12T10:34:37.559Z,3232.00
2023-05-12T10:35:37.494Z,3192.00
2023-05-12T10:36:37.470Z,3120.00
2023-05-12T10:37:37.439Z,3028.00
2023-05-12T10:38:37.447Z,2892.00
2023-05-12T10:39:37.386Z,2808.00
2023-05-12T10:40:37.364Z,2832.00
2023-05-12T10:41:37.316Z,2856.00
2023-05-12T10:42:37.298Z,2864.00
2023-05-12T10:43:37.264Z,2916.00
2023-05-12T10:44:37.235Z,2948.00
2023-05-12T10:45:37.220Z,2988.00
2023-05-12T10:46:37.211Z,3012.00
2023-05-12T10:47:37.195Z,3104.00
2023-05-12T10:48:37.111Z,3136.00
2023-05-12T10:49:37.081Z,3160.00
2023-05-12T10:50:37.062Z,3176.00
2023-05-12T10:51:37.019Z,3212.00
2023-05-12T10:52:36.993Z,3320.00
2023-05-12T10:53:48.235Z,3524.00
2023-05-12T10:54:36.930Z,3728.00
2023-05-12T10:55:37.049Z,3740.00
2023-05-12T10:56:37.072Z,3732.00
2023-05-12T10:57:37.152Z,4244.00
2023-05-12T10:58:37.551Z,4832.00
2023-05-12T10:59:37.120Z,5004.00
2023-05-12T11:00:37.190Z,4988.00
2023-05-12T11:01:37.630Z,5116.00
2023-05-12T11:02:38.581Z,5112.00
2023-05-12T11:03:37.394Z,4664.00
2023-05-12T11:04:37.546Z,4940.00
2023-05-12T11:05:37.722Z,3976.00
2023-05-12T11:06:36.646Z,4860.00
2023-05-12T11:07:37.507Z,4512.00
2023-05-12T11:08:37.712Z,3800.00
2023-05-12T11:09:40.471Z,4060.00
2023-05-12T11:10:36.512Z,3564.00
2023-05-12T11:11:36.542Z,3828.00
2023-05-12T11:12:36.740Z,4028.00
2023-05-12T11:13:36.388Z,3720.00
2023-05-12T11:14:36.357Z,3748.00
2023-05-12T11:15:36.321Z,3800.00
2023-05-12T11:16:36.320Z,3680.00
2023-05-12T11:17:36.299Z,3424.00
2023-05-12T11:18:36.261Z,3348.00
2023-05-12T11:19:36.215Z,3388.00
2023-05-12T11:20:36.184Z,3572.00
2023-05-12T11:21:36.153Z,3700.00
2023-05-12T11:22:36.150Z,4304.00
2023-05-12T11:23:36.103Z,3732.00
2023-05-12T11:24:36.069Z,4152.00
2023-05-12T11:25:36.112Z,6176.00
2023-05-12T11:26:36.031Z,4388.00
2023-05-12T11:27:35.987Z,3956.00
2023-05-12T11:28:35.956Z,3764.00
2023-05-12T11:29:35.929Z,3556.00
2023-05-12T11:30:35.904Z,3372.00
2023-05-12T11:31:35.942Z,3340.00
2023-05-12T11:32:35.860Z,3532.00
2023-05-12T11:33:35.817Z,3768.00
2023-05-12T11:34:35.799Z,3640.00
2023-05-12T11:35:35.765Z,3416.00
2023-05-12T11:36:35.738Z,3468.00
2023-05-12T11:37:35.707Z,3340.00
2023-05-12T11:38:35.684Z,3220.00
2023-05-12T11:39:35.653Z,3260.00
2023-05-12T11:40:35.627Z,3324.00
2023-05-12T11:41:35.594Z,3304.00
2023-05-12T11:42:35.565Z,3160.00
2023-05-12T11:43:35.530Z,3000.00
2023-05-12T11:44:35.509Z,2860.00
2023-05-12T11:45:35.548Z,2828.00
2023-05-12T11:46:35.449Z,2852.00
2023-05-12T11:47:35.470Z,2888.00
2023-05-12T11:48:35.392Z,2924.00
2023-05-12T11:49:35.474Z,2940.00
2023-05-12T11:50:35.338Z,2984.00
2023-05-12T11:51:35.311Z,2988.00
2023-05-12T11:52:35.277Z,2980.00
2023-05-12T11:53:35.251Z,2916.00
2023-05-12T11:54:35.235Z,2848.00
2023-05-12T11:55:35.214Z,2796.00
2023-05-12T11:56:35.174Z,2760.00
2023-05-12T11:57:35.135Z,2772.00
2023-05-12T11:58:35.757Z,2864.00
2023-05-12T11:59:35.109Z,2976.00
2023-05-12T12:00:35.073Z,3080.00
2023-05-12T12:01:35.023Z,3228.00
2023-05-12T12:02:35.064Z,3428.00
2023-05-12T12:03:35.056Z,3748.00
2023-05-12T12:04:35.120Z,3996.00
2023-05-12T12:05:34.951Z,4244.00
2023-05-12T12:06:34.902Z,4444.00
2023-05-12T12:07:34.881Z,4432.00
2023-05-12T12:08:34.842Z,4588.00
2023-05-12T12:09:34.802Z,5496.00
2023-05-12T12:10:34.766Z,5092.00
2023-05-12T12:11:34.750Z,4940.00
2023-05-12T12:12:34.724Z,5292.00
2023-05-12T12:13:34.687Z,4420.00
2023-05-12T12:14:34.656Z,4128.00
2023-05-12T12:15:34.633Z,4140.00
2023-05-12T12:16:34.650Z,4300.00
2023-05-12T12:17:34.682Z,4308.00
2023-05-12T12:18:34.595Z,4888.00
2023-05-12T12:19:34.530Z,5028.00
2023-05-12T12:20:34.493Z,5936.00
2023-05-12T12:21:34.511Z,6064.00
2023-05-12T12:22:34.793Z,8708.00
2023-05-12T12:23:44.105Z,7288.00
2023-05-12T12:24:34.390Z,10456.00
2023-05-12T12:25:34.345Z,4888.00
2023-05-12T12:26:34.325Z,4300.00
2023-05-12T12:27:34.295Z,3672.00
2023-05-12T12:28:34.283Z,3032.00
2023-05-12T12:29:34.237Z,2760.00
2023-05-12T12:30:34.216Z,2808.00
2023-05-12T12:31:34.207Z,3000.00
2023-05-12T12:32:34.191Z,4136.00
2023-05-12T12:33:34.124Z,4468.00
2023-05-12T12:34:34.101Z,3916.00
2023-05-12T12:35:34.073Z,3688.00